createdAt,value
2019-05-17T00:04:03.191Z,2.80
2019-05-17T00:09:07.294Z,2.50
2019-05-17T00:14:10.131Z,2.53
2019-05-17T00:19:13.333Z,2.33
2019-05-17T00:24:18.327Z,2.20
2019-05-17T00:29:21.441Z,2.20
2019-05-17T00:34:26.988Z,2.53
2019-05-17T00:39:29.520Z,2.53
2019-05-17T00:44:32.046Z,2.30
2019-05-17T00:49:36.970Z,2.73
2019-05-17T00:54:39.694Z,2.77
2019-05-17T00:59:41.880Z,3.50
2019-05-17T01:04:47.399Z,3.73
2019-05-17T01:09:49.446Z,4.70
2019-05-17T01:14:52.796Z,4.07
2019-05-17T01:19:57.370Z,5.13
2019-05-17T01:25:01.511Z,5.70
2019-05-17T01:30:06.832Z,7.33
2019-05-17T01:35:10.090Z,7.03
2019-05-17T01:40:14.023Z,7.00
2019-05-17T01:45:18.132Z,6.50
2019-05-17T01:50:21.038Z,6.57
2019-05-17T01:55:26.493Z,8.60
2019-05-17T02:00:29.317Z,8.40
2019-05-17T02:05:32.634Z,8.30
2019-05-17T02:10:37.456Z,8.00
2019-05-17T02:15:40.060Z,6.20
2019-05-17T02:20:43.184Z,7.00
2019-05-17T02:25:47.220Z,7.87
2019-05-17T02:30:52.875Z,7.00
2019-05-17T02:35:54.451Z,8.80
2019-05-17T02:40:56.583Z,8.43
2019-05-17T02:45:59.493Z,9.77
2019-05-17T02:51:03.519Z,10.60
2019-05-17T02:56:07.422Z,11.80
2019-05-17T03:01:12.665Z,12.50
2019-05-17T03:06:14.973Z,13.07
2019-05-17T03:11:18.239Z,14.33
2019-05-17T03:16:23.663Z,13.90
2019-05-17T03:21:28.294Z,15.13
2019-05-17T03:26:32.809Z,14.30
2019-05-17T03:31:44.553Z,12.80
2019-05-17T03:36:46.129Z,13.30
2019-05-17T03:41:47.975Z,13.60
2019-05-17T03:46:53.212Z,15.83
2019-05-17T03:51:56.078Z,14.30
2019-05-17T03:56:58.676Z,13.40
2019-05-17T04:02:03.265Z,15.03
2019-05-17T04:07:06.938Z,15.33
2019-05-17T04:12:09.529Z,14.40
2019-05-17T04:17:13.140Z,16.00
2019-05-17T04:22:16.378Z,16.20
2019-05-17T04:27:18.834Z,18.40
2019-05-17T04:32:23.361Z,16.50
2019-05-17T04:37:27.363Z,17.50
2019-05-17T04:42:33.108Z,18.00
2019-05-17T04:47:36.432Z,17.17
2019-05-17T04:52:42.895Z,16.73
2019-05-17T04:57:45.916Z,17.57
2019-05-17T05:02:52.523Z,17.43
2019-05-17T05:07:54.495Z,16.73
2019-05-17T05:12:57.976Z,16.33
2019-05-17T05:18:02.372Z,16.20
2019-05-17T05:23:05.665Z,13.03
2019-05-17T05:28:11.338Z,12.83
2019-05-17T05:33:14.260Z,11.83
2019-05-17T05:38:17.125Z,12.70
2019-05-17T05:43:22.492Z,12.40
2019-05-17T05:48:25.720Z,12.20
2019-05-17T05:53:28.968Z,14.10
2019-05-17T05:58:32.334Z,12.30
2019-05-17T06:03:35.008Z,11.20
2019-05-17T06:08:38.196Z,12.03
2019-05-17T06:13:41.890Z,9.90
2019-05-17T06:18:45.624Z,11.30
2019-05-17T06:23:52.256Z,11.50
2019-05-17T06:28:55.466Z,8.83
2019-05-17T06:33:59.104Z,10.10
2019-05-17T06:39:04.186Z,10.80
2019-05-17T06:44:07.098Z,9.10
2019-05-17T06:49:11.761Z,9.70
2019-05-17T06:54:15.309Z,9.20
2019-05-17T06:59:18.845Z,7.80
2019-05-17T07:04:21.871Z,9.87
2019-05-17T07:09:25.374Z,9.60
2019-05-17T07:14:29.467Z,10.37
2019-05-17T07:19:32.613Z,9.80
2019-05-17T07:24:35.544Z,11.20
2019-05-17T07:29:40.333Z,10.13
2019-05-17T07:34:43.609Z,11.30
2019-05-17T07:39:57.881Z,8.73
2019-05-17T07:44:51.877Z,9.03
2019-05-17T07:49:55.320Z,10.30
2019-05-17T07:55:02.316Z,10.40
2019-05-17T08:00:06.725Z,10.17
2019-05-17T08:05:10.312Z,12.93
2019-05-17T08:10:14.301Z,10.70
2019-05-17T08:15:16.917Z,12.47
2019-05-17T08:20:22.124Z,12.00
2019-05-17T08:25:24.976Z,11.00
2019-05-17T08:30:30.284Z,11.40
2019-05-17T08:35:34.667Z,10.10
2019-05-17T08:40:40.383Z,12.37
2019-05-17T08:45:42.443Z,13.00
2019-05-17T08:50:44.877Z,13.77
2019-05-17T08:55:50.080Z,13.30
2019-05-17T09:00:52.687Z,12.37
2019-05-17T09:05:55.873Z,13.70
2019-05-17T09:11:00.422Z,13.57
2019-05-17T09:16:03.823Z,11.90
2019-05-17T09:21:07.016Z,13.00
2019-05-17T09:26:12.763Z,13.60
2019-05-17T09:31:15.978Z,12.57
2019-05-17T09:36:20.538Z,11.33
2019-05-17T09:41:23.755Z,12.43
2019-05-17T09:46:26.882Z,11.37
2019-05-17T09:51:30.399Z,11.70
2019-05-17T09:56:33.924Z,11.63
2019-05-17T10:01:39.466Z,10.27
2019-05-17T10:06:42.777Z,10.47
2019-05-17T10:11:45.522Z,10.50
2019-05-17T10:16:48.311Z,11.80
2019-05-17T10:21:51.580Z,11.03
2019-05-17T10:26:54.474Z,11.10
2019-05-17T10:31:59.795Z,11.80
2019-05-17T10:37:03.069Z,8.90
2019-05-17T10:42:06.282Z,9.60
2019-05-17T10:47:11.220Z,11.57
2019-05-17T10:52:14.399Z,11.00
2019-05-17T10:57:19.430Z,12.47
2019-05-17T11:02:41.274Z,12.20
2019-05-17T11:08:03.461Z,13.03
2019-05-17T11:13:25.366Z,11.30
2019-05-17T11:18:46.710Z,12.40
2019-05-17T11:24:07.877Z,11.23
2019-05-17T11:29:29.211Z,11.87
2019-05-17T11:34:50.774Z,12.07
2019-05-17T11:40:12.313Z,13.13
2019-05-17T11:45:33.719Z,13.27
2019-05-17T11:50:55.273Z,14.70
2019-05-17T11:56:16.897Z,14.73
2019-05-17T12:01:38.784Z,14.80
2019-05-17T12:07:00.382Z,15.07
2019-05-17T12:12:21.697Z,14.37
2019-05-17T12:17:44.171Z,15.50
2019-05-17T12:23:06.179Z,16.67
2019-05-17T12:28:28.617Z,17.13
2019-05-17T12:33:50.163Z,20.37
2019-05-17T12:39:11.810Z,21.33
2019-05-17T12:44:33.009Z,21.10
2019-05-17T12:49:54.768Z,20.70
2019-05-17T12:55:27.086Z,19.83
2019-05-17T13:00:48.809Z,19.73
2019-05-17T13:06:10.869Z,19.10
2019-05-17T13:11:32.683Z,19.20
2019-05-17T13:16:54.129Z,15.90
2019-05-17T13:22:17.339Z,16.10
2019-05-17T13:27:39.557Z,17.50
2019-05-17T13:33:01.664Z,16.17
2019-05-17T13:38:24.884Z,15.53
2019-05-17T13:43:46.629Z,14.90
2019-05-17T13:49:08.213Z,15.90
2019-05-17T13:54:29.858Z,14.17
2019-05-17T13:59:51.394Z,13.73
2019-05-17T14:05:13.316Z,13.60
2019-05-17T14:10:34.804Z,13.03
2019-05-17T14:15:56.374Z,12.63
2019-05-17T14:21:18.153Z,12.63
2019-05-17T14:26:39.842Z,13.73
2019-05-17T14:31:43.332Z,12.10
2019-05-17T14:36:46.263Z,14.37
2019-05-17T14:41:49.858Z,13.07
2019-05-17T14:46:53.213Z,11.83
2019-05-17T14:51:56.376Z,11.40
2019-05-17T14:56:59.892Z,11.80
2019-05-17T15:02:03.107Z,10.73
2019-05-17T15:07:06.317Z,9.37
2019-05-17T15:12:10.237Z,9.50
2019-05-17T15:17:13.831Z,8.80
2019-05-17T15:22:17.368Z,8.77
2019-05-17T15:27:20.687Z,11.97
2019-05-17T15:32:24.211Z,10.27
2019-05-17T15:37:27.346Z,9.97
2019-05-17T15:42:43.269Z,9.57
2019-05-17T15:47:37.586Z,10.10
2019-05-17T15:52:41.304Z,10.20
2019-05-17T15:57:44.896Z,10.10
2019-05-17T16:02:48.637Z,9.77
2019-05-17T16:07:51.583Z,11.10
2019-05-17T16:13:02.240Z,14.30
2019-05-17T16:17:59.961Z,11.07
2019-05-17T16:23:02.766Z,11.20
2019-05-17T16:28:05.970Z,10.90
2019-05-17T16:33:08.815Z,11.93
2019-05-17T16:38:12.077Z,11.23
2019-05-17T16:43:18.479Z,10.30
2019-05-17T16:48:20.408Z,10.90
2019-05-17T16:53:23.669Z,10.37
2019-05-17T16:58:27.301Z,10.13
2019-05-17T17:03:43.825Z,9.47
2019-05-17T17:08:36.222Z,8.73
2019-05-17T17:13:39.796Z,8.20
2019-05-17T17:18:43.389Z,8.93
2019-05-17T17:23:46.190Z,8.40
2019-05-17T17:28:49.099Z,7.03
2019-05-17T17:33:52.322Z,7.87
2019-05-17T17:38:55.803Z,7.50
2019-05-17T17:43:59.308Z,7.17
2019-05-17T17:49:03.081Z,8.50
2019-05-17T17:54:05.961Z,7.63
2019-05-17T17:59:09.172Z,8.23
2019-05-17T18:04:12.293Z,9.40
2019-05-17T18:09:15.170Z,8.90
2019-05-17T18:14:18.899Z,9.10
2019-05-17T18:19:22.307Z,8.63
2019-05-17T18:24:25.639Z,9.70
2019-05-17T18:29:28.843Z,10.10
2019-05-17T18:34:33.241Z,10.20
2019-05-17T18:39:38.914Z,10.77
2019-05-17T18:44:42.251Z,12.90
2019-05-17T18:49:45.378Z,11.73
2019-05-17T18:54:49.117Z,10.70
2019-05-17T18:59:52.735Z,11.63
2019-05-17T19:04:55.913Z,12.20
2019-05-17T19:09:58.902Z,11.90
2019-05-17T19:15:02.205Z,12.57
2019-05-17T19:20:06.044Z,13.50
2019-05-17T19:25:10.688Z,14.03
2019-05-17T19:30:15.643Z,13.07
2019-05-17T19:35:18.717Z,12.20
2019-05-17T19:40:22.036Z,13.57
2019-05-17T19:45:25.062Z,13.87
2019-05-17T19:50:28.061Z,13.97
2019-05-17T19:55:33.307Z,15.30
2019-05-17T20:00:36.847Z,15.73
2019-05-17T20:05:40.431Z,15.43
2019-05-17T20:10:42.994Z,15.70
2019-05-17T20:15:45.867Z,17.50
2019-05-17T20:20:49.526Z,17.23
2019-05-17T20:25:53.092Z,15.83
2019-05-17T20:30:56.011Z,19.10
2019-05-17T20:35:58.968Z,18.33
2019-05-17T20:41:01.939Z,18.13
2019-05-17T20:46:05.396Z,17.30
2019-05-17T20:51:08.969Z,17.30
2019-05-17T20:56:12.622Z,17.30
2019-05-17T21:01:15.974Z,16.30
2019-05-17T21:06:20.210Z,18.20
2019-05-17T21:11:23.103Z,16.30
2019-05-17T21:16:26.379Z,17.13
2019-05-17T21:21:29.630Z,16.73
2019-05-17T21:26:32.599Z,17.47
2019-05-17T21:31:35.981Z,15.23
2019-05-17T21:36:39.473Z,14.63
2019-05-17T21:41:42.607Z,17.50
2019-05-17T21:46:45.661Z,16.47
2019-05-17T21:51:49.259Z,15.60
2019-05-17T21:56:52.013Z,16.20
2019-05-17T22:01:57.148Z,16.83
2019-05-17T22:07:00.153Z,16.90
2019-05-17T22:12:07.299Z,16.83
2019-05-17T22:17:10.790Z,18.40
2019-05-17T22:22:13.754Z,18.73
2019-05-17T22:27:16.731Z,19.07
2019-05-17T22:32:20.005Z,17.40
2019-05-17T22:37:23.642Z,18.83
2019-05-17T22:42:27.293Z,19.90
2019-05-17T22:47:30.561Z,18.57
2019-05-17T22:52:34.131Z,17.33
2019-05-17T22:57:37.383Z,21.63
2019-05-17T23:02:40.898Z,22.93
2019-05-17T23:07:43.455Z,22.53
2019-05-17T23:12:46.700Z,21.07
2019-05-17T23:17:50.142Z,22.73
2019-05-17T23:22:53.463Z,21.87
2019-05-17T23:27:56.918Z,20.40
2019-05-17T23:33:00.089Z,22.33
2019-05-17T23:38:03.013Z,18.80
2019-05-17T23:43:05.548Z,19.93
2019-05-17T23:48:08.747Z,18.63
2019-05-17T23:53:11.660Z,21.00
2019-05-17T23:58:14.864Z,20.97
